createdAt,value
2016-10-12T00:00:39.601Z,994.79
2016-10-12T00:01:49.905Z,994.78
2016-10-12T00:02:59.911Z,994.78
2016-10-12T00:04:10.208Z,994.73
2016-10-12T00:05:20.495Z,994.71
2016-10-12T00:06:30.473Z,994.7
2016-10-12T00:07:40.758Z,994.71
2016-10-12T00:08:51.036Z,994.69
2016-10-12T00:10:01.016Z,994.65
2016-10-12T00:11:11.042Z,994.65
2016-10-12T00:12:21.036Z,994.65
2016-10-12T00:13:31.316Z,994.61
2016-10-12T00:14:40.685Z,994.59
2016-10-12T00:15:50.672Z,994.55
2016-10-12T00:17:00.657Z,994.58
2016-10-12T00:18:10.645Z,994.53
2016-10-12T00:19:20.946Z,994.58
2016-10-12T00:20:30.937Z,994.52
2016-10-12T00:21:41.204Z,994.52
2016-10-12T00:22:51.487Z,994.51
2016-10-12T00:24:01.792Z,994.48
2016-10-12T00:25:11.761Z,994.47
2016-10-12T00:26:21.741Z,994.43
2016-10-12T00:27:31.422Z,994.43
2016-10-12T00:28:41.719Z,994.48
2016-10-12T00:29:52.002Z,994.45
2016-10-12T00:31:02.303Z,994.38
2016-10-12T00:32:12.296Z,994.42
2016-10-12T00:33:21.965Z,994.38
2016-10-12T00:34:31.958Z,994.43
2016-10-12T00:35:42.244Z,994.42
2016-10-12T00:36:52.542Z,994.41
2016-10-12T00:38:02.839Z,994.35
2016-10-12T00:39:13.143Z,994.39
2016-10-12T00:40:23.442Z,994.34
2016-10-12T00:41:33.739Z,994.37
2016-10-12T00:42:43.720Z,994.37
2016-10-12T00:43:53.727Z,994.33
2016-10-12T00:45:04.023Z,994.34
2016-10-12T00:46:14.301Z,994.31
2016-10-12T00:47:24.584Z,994.3
2016-10-12T00:48:34.860Z,994.3
2016-10-12T00:49:44.851Z,994.32
2016-10-12T00:50:55.118Z,994.33
2016-10-12T00:52:05.405Z,994.33
2016-10-12T00:53:15.687Z,994.34
2016-10-12T00:54:25.992Z,994.36
2016-10-12T00:55:36.280Z,994.31
2016-10-12T00:56:46.251Z,994.41
2016-10-12T00:57:56.543Z,994.42
2016-10-12T00:59:06.839Z,994.36
2016-10-12T01:00:16.828Z,994.38
2016-10-12T01:01:27.113Z,994.35
2016-10-12T01:02:37.395Z,994.39
2016-10-12T01:03:47.682Z,994.42
2016-10-12T01:04:57.674Z,994.42
2016-10-12T01:06:07.647Z,994.38
2016-10-12T01:07:17.941Z,994.45
2016-10-12T01:08:28.225Z,994.41
2016-10-12T01:09:38.531Z,994.45
2016-10-12T01:10:48.504Z,994.42
2016-10-12T01:11:58.795Z,994.41
2016-10-12T01:13:09.127Z,994.41
2016-10-12T01:14:19.402Z,994.42
2016-10-12T01:15:29.698Z,994.42
2016-10-12T01:16:39.695Z,994.42
2016-10-12T01:17:49.978Z,994.38
2016-10-12T01:18:59.960Z,994.4
2016-10-12T01:20:10.240Z,994.38
2016-10-12T01:21:20.543Z,994.41
2016-10-12T01:22:30.826Z,994.37
2016-10-12T01:23:40.480Z,994.41
2016-10-12T01:24:50.764Z,994.4
2016-10-12T01:26:01.056Z,994.42
2016-10-12T01:27:11.333Z,994.43
2016-10-12T01:28:21.309Z,994.45
2016-10-12T01:29:31.607Z,994.44
2016-10-12T01:30:41.886Z,994.45
2016-10-12T01:31:51.858Z,994.45
2016-10-12T01:33:01.530Z,994.44
2016-10-12T01:34:11.817Z,994.41
2016-10-12T01:35:21.796Z,994.4
2016-10-12T01:36:32.084Z,994.43
2016-10-12T01:37:42.392Z,994.4
2016-10-12T01:38:52.058Z,994.39
2016-10-12T01:40:02.065Z,994.4
2016-10-12T01:41:12.343Z,994.37
2016-10-12T01:42:22.619Z,994.39
2016-10-12T01:43:32.632Z,994.36
2016-10-12T01:44:42.903Z,994.4
2016-10-12T01:45:53.189Z,994.35
2016-10-12T01:47:03.473Z,994.38
2016-10-12T01:48:13.778Z,994.37
2016-10-12T01:49:23.750Z,994.35
2016-10-12T01:50:33.713Z,994.37
2016-10-12T01:51:44.003Z,994.35
2016-10-12T01:52:53.980Z,994.34
2016-10-12T01:54:04.275Z,994.38
2016-10-12T01:55:13.972Z,994.33
2016-10-12T01:56:24.260Z,994.3
2016-10-12T01:57:34.551Z,994.31
2016-10-12T01:58:44.223Z,994.3
2016-10-12T01:59:54.449Z,994.29
2016-10-12T02:01:04.727Z,994.32
2016-10-12T02:02:15.033Z,994.29
2016-10-12T02:03:25.317Z,994.27
2016-10-12T02:04:35.296Z,994.26
2016-10-12T02:05:45.613Z,994.27
2016-10-12T02:06:55.905Z,994.27
2016-10-12T02:08:05.577Z,994.27
2016-10-12T02:09:15.868Z,994.26
2016-10-12T02:10:26.164Z,994.22
2016-10-12T02:11:36.165Z,994.21
2016-10-12T02:12:46.144Z,994.23
2016-10-12T02:13:56.440Z,994.23
2016-10-12T02:15:06.751Z,994.18
2016-10-12T02:16:17.039Z,994.23
2016-10-12T02:17:27.011Z,994.22
2016-10-12T02:18:37.301Z,994.22
2016-10-12T02:19:47.579Z,994.18
2016-10-12T02:20:57.560Z,994.22
2016-10-12T02:22:07.539Z,994.24
2016-10-12T02:23:17.829Z,994.23
2016-10-12T02:24:28.126Z,994.27
2016-10-12T02:25:38.418Z,994.21
2016-10-12T02:26:48.700Z,994.28
2016-10-12T02:27:58.996Z,994.28
2016-10-12T02:29:08.991Z,994.27
2016-10-12T02:30:19.288Z,994.2
2016-10-12T02:31:29.264Z,994.25
2016-10-12T02:32:39.237Z,994.25
2016-10-12T02:33:48.913Z,994.22
2016-10-12T02:34:59.199Z,994.23
2016-10-12T02:36:09.478Z,994.24
2016-10-12T02:37:19.452Z,994.27
2016-10-12T02:38:29.421Z,994.24
2016-10-12T02:39:39.408Z,994.26
2016-10-12T02:40:49.703Z,994.25
2016-10-12T02:41:59.986Z,994.26
2016-10-12T02:43:09.989Z,994.24
2016-10-12T02:44:20.284Z,994.23
2016-10-12T02:45:30.571Z,994.24
2016-10-12T02:46:40.863Z,994.22
2016-10-12T02:47:50.857Z,994.21
2016-10-12T02:49:00.842Z,994.24
2016-10-12T02:50:11.151Z,994.21
2016-10-12T02:51:21.438Z,994.22
2016-10-12T02:52:31.732Z,994.23
2016-10-12T02:53:41.709Z,994.24
2016-10-12T02:54:51.669Z,994.23
2016-10-12T02:56:01.962Z,994.27
2016-10-12T02:57:12.246Z,994.3
2016-10-12T02:58:22.538Z,994.27
2016-10-12T02:59:32.816Z,994.28
2016-10-12T03:00:43.109Z,994.24
2016-10-12T03:32:48.663Z,994.39
2016-10-12T03:33:58.316Z,994.35
2016-10-12T03:35:08.595Z,994.33
2016-10-12T03:36:18.273Z,994.29
2016-10-12T03:37:27.934Z,994.33
2016-10-12T03:38:38.236Z,994.33
2016-10-12T03:39:48.522Z,994.35
2016-10-12T03:40:58.514Z,994.32
2016-10-12T03:42:08.823Z,994.34
2016-10-12T03:43:19.113Z,994.32
2016-10-12T03:44:28.797Z,994.32
2016-10-12T03:45:39.096Z,994.29
2016-10-12T03:46:49.119Z,994.32
2016-10-12T03:47:59.430Z,994.31
2016-10-12T03:49:09.707Z,994.32
2016-10-12T03:50:20.008Z,994.33
2016-10-12T03:51:30.314Z,994.33
2016-10-12T03:52:40.626Z,994.35
2016-10-12T03:53:50.612Z,994.37
2016-10-12T03:55:00.901Z,994.36
2016-10-12T03:56:11.196Z,994.36
2016-10-12T03:57:21.168Z,994.41
2016-10-12T03:58:31.152Z,994.35
2016-10-12T03:59:41.122Z,994.34
2016-10-12T04:00:51.407Z,994.36
2016-10-12T04:02:01.699Z,994.33
2016-10-12T04:03:11.975Z,994.4
2016-10-12T04:04:22.272Z,994.38
2016-10-12T04:05:32.555Z,994.4
2016-10-12T04:06:42.537Z,994.39
2016-10-12T04:07:52.817Z,994.39
2016-10-12T04:09:02.805Z,994.4
2016-10-12T04:10:13.113Z,994.42
2016-10-12T04:11:23.393Z,994.39
2016-10-12T04:12:33.694Z,994.39
2016-10-12T04:13:43.985Z,994.43
2016-10-12T04:14:53.657Z,994.43
2016-10-12T04:16:03.340Z,994.39
2016-10-12T04:17:13.620Z,994.38
2016-10-12T04:18:23.908Z,994.43
2016-10-12T04:19:33.578Z,994.46
2016-10-12T04:20:43.562Z,994.44
2016-10-12T04:21:53.857Z,994.46
2016-10-12T04:23:04.141Z,994.46
2016-10-12T04:24:13.826Z,994.46
2016-10-12T04:25:23.506Z,994.47
2016-10-12T04:26:33.484Z,994.48
2016-10-12T04:27:43.782Z,994.49
2016-10-12T04:28:53.780Z,994.57
2016-10-12T04:30:04.073Z,994.54
2016-10-12T04:31:14.375Z,994.55
2016-10-12T04:32:24.348Z,994.57
2016-10-12T04:33:34.631Z,994.61
2016-10-12T04:34:44.921Z,994.63
2016-10-12T04:35:55.218Z,994.62
2016-10-12T04:37:05.505Z,994.62
2016-10-12T04:38:15.808Z,994.64
2016-10-12T04:39:26.092Z,994.59
2016-10-12T04:40:36.370Z,994.6
2016-10-12T04:41:46.663Z,994.61
2016-10-12T04:42:56.959Z,994.6
2016-10-12T04:44:06.968Z,994.59
2016-10-12T04:45:16.946Z,994.55
2016-10-12T04:46:27.229Z,994.53
2016-10-12T04:47:37.524Z,994.55
2016-10-12T04:48:47.505Z,994.53
2016-10-12T04:49:57.794Z,994.54
2016-10-12T04:51:08.080Z,994.53
2016-10-12T04:52:18.076Z,994.56
2016-10-12T04:53:28.093Z,994.53
2016-10-12T04:54:37.754Z,994.54
2016-10-12T04:55:48.047Z,994.57
2016-10-12T04:56:58.332Z,994.58
2016-10-12T04:58:08.309Z,994.57
2016-10-12T04:59:18.597Z,994.57
2016-10-12T05:00:28.582Z,994.58
2016-10-12T05:01:38.887Z,994.62
2016-10-12T05:02:49.445Z,994.57
2016-10-12T05:03:59.432Z,994.53
2016-10-12T05:05:09.417Z,994.56
2016-10-12T05:06:19.708Z,994.56
2016-10-12T05:07:29.692Z,994.56
2016-10-12T05:08:39.973Z,994.59
2016-10-12T05:09:50.257Z,994.55
2016-10-12T05:10:59.920Z,994.56
2016-10-12T05:12:09.893Z,994.58
2016-10-12T05:13:19.866Z,994.6
2016-10-12T05:14:29.878Z,994.57
2016-10-12T05:15:39.555Z,994.58
2016-10-12T05:16:49.849Z,994.59
2016-10-12T05:18:00.138Z,994.62
2016-10-12T05:19:10.429Z,994.64
2016-10-12T05:20:20.411Z,994.65
2016-10-12T05:21:30.082Z,994.65
2016-10-12T05:22:40.376Z,994.65
2016-10-12T05:23:50.670Z,994.65
2016-10-12T05:25:00.661Z,994.68
2016-10-12T05:26:10.988Z,994.67
2016-10-12T05:27:21.274Z,994.69
2016-10-12T05:28:31.276Z,994.71
2016-10-12T05:29:41.249Z,994.71
2016-10-12T05:30:50.920Z,994.73
2016-10-12T05:32:00.898Z,994.73
2016-10-12T05:33:11.204Z,994.73
2016-10-12T05:34:21.179Z,994.72
2016-10-12T05:35:31.480Z,994.74
2016-10-12T05:36:41.450Z,994.74
2016-10-12T05:37:51.435Z,994.75
2016-10-12T05:39:01.402Z,994.76
2016-10-12T05:40:11.393Z,994.79
2016-10-12T05:41:21.375Z,994.78
2016-10-12T05:42:31.647Z,994.81
2016-10-12T05:43:41.639Z,994.83
2016-10-12T05:44:51.614Z,994.78
2016-10-12T05:46:01.893Z,994.85
2016-10-12T05:47:12.169Z,994.88
2016-10-12T05:48:22.151Z,994.88
2016-10-12T05:49:32.452Z,994.86
2016-10-12T05:50:42.744Z,994.84
2016-10-12T05:51:52.414Z,994.88
2016-10-12T05:53:02.738Z,994.91
2016-10-12T05:54:12.721Z,994.89
2016-10-12T05:55:22.994Z,994.88
2016-10-12T05:56:33.279Z,994.88
2016-10-12T05:57:43.255Z,994.91
2016-10-12T05:58:53.235Z,994.91
2016-10-12T06:00:03.229Z,994.95
2016-10-12T06:01:13.530Z,994.94
2016-10-12T06:02:23.497Z,994.94
2016-10-12T06:03:33.478Z,994.94
2016-10-12T06:04:43.764Z,994.94
2016-10-12T06:05:54.050Z,994.97
2016-10-12T06:07:04.042Z,994.96
2016-10-12T06:08:14.320Z,995.04
2016-10-12T06:09:24.597Z,995.01
2016-10-12T06:10:34.876Z,995.01
2016-10-12T06:11:45.170Z,995.03
2016-10-12T06:12:55.456Z,995.01
2016-10-12T06:14:05.118Z,995.01
2016-10-12T06:15:15.429Z,995.05
2016-10-12T06:16:25.731Z,995.04
2016-10-12T06:17:35.705Z,995.07
2016-10-12T06:18:45.698Z,995.06
2016-10-12T06:19:56.226Z,995.04
2016-10-12T06:21:06.204Z,995.06
2016-10-12T06:22:16.206Z,995.05
2016-10-12T06:23:25.877Z,995.09
2016-10-12T06:24:36.172Z,995.09
2016-10-12T06:25:46.465Z,995.1
2016-10-12T06:26:56.496Z,995.13
2016-10-12T06:28:06.793Z,995.11
2016-10-12T06:29:16.775Z,995.1
2016-10-12T06:30:26.753Z,995.13
2016-10-12T06:31:37.047Z,995.15
2016-10-12T06:32:47.042Z,995.1
2016-10-12T06:33:57.327Z,995.15
2016-10-12T06:35:07.594Z,995.12
2016-10-12T06:36:17.578Z,995.16
2016-10-12T06:37:27.864Z,995.13
2016-10-12T06:38:37.850Z,995.17
2016-10-12T06:39:47.836Z,995.14
2016-10-12T06:40:57.816Z,995.15
2016-10-12T06:42:08.088Z,995.16
2016-10-12T06:43:18.366Z,995.17
2016-10-12T06:44:28.647Z,995.26
2016-10-12T06:45:38.635Z,995.22
2016-10-12T06:46:48.921Z,995.21
2016-10-12T06:47:58.579Z,995.28
2016-10-12T06:49:08.569Z,995.29
2016-10-12T06:50:18.858Z,995.33
2016-10-12T06:51:28.842Z,995.33
2016-10-12T06:52:39.144Z,995.31
2016-10-12T06:53:49.361Z,995.39
2016-10-12T06:54:59.649Z,995.4
2016-10-12T06:56:09.944Z,995.35
2016-10-12T06:57:20.267Z,995.35
2016-10-12T06:58:30.234Z,995.38
2016-10-12T06:59:40.534Z,995.4
2016-10-12T07:00:50.516Z,995.43
2016-10-12T07:02:00.210Z,995.43
2016-10-12T07:03:10.190Z,995.44
2016-10-12T07:04:20.171Z,995.45
2016-10-12T07:05:30.159Z,995.44
2016-10-12T07:06:40.136Z,995.45
2016-10-12T07:07:49.797Z,995.49
2016-10-12T07:09:00.084Z,995.48
2016-10-12T07:10:10.360Z,995.46
2016-10-12T07:11:20.341Z,995.49
2016-10-12T07:12:30.634Z,995.51
2016-10-12T07:13:40.325Z,995.48
2016-10-12T07:14:50.612Z,995.55
2016-10-12T07:15:59.993Z,995.5
2016-10-12T07:17:09.979Z,995.55
2016-10-12T07:18:19.337Z,995.56
2016-10-12T07:19:29.624Z,995.54
2016-10-12T07:20:39.305Z,995.56
2016-10-12T07:21:49.293Z,995.55
2016-10-12T07:22:59.292Z,995.55
2016-10-12T07:24:09.590Z,995.57
2016-10-12T07:25:19.858Z,995.54
2016-10-12T07:26:29.864Z,995.62
2016-10-12T07:27:39.545Z,995.62
2016-10-12T07:28:49.527Z,995.64
2016-10-12T07:29:59.850Z,995.65
2016-10-12T07:31:10.146Z,995.69
2016-10-12T07:32:20.137Z,995.65
2016-10-12T07:33:29.816Z,995.63
2016-10-12T07:34:40.107Z,995.62
2016-10-12T07:35:49.792Z,995.63
2016-10-12T07:37:00.089Z,995.64
2016-10-12T07:38:10.081Z,995.63
2016-10-12T07:39:20.359Z,995.63
2016-10-12T07:40:30.625Z,995.6
2016-10-12T07:41:40.927Z,995.64
2016-10-12T07:42:50.632Z,995.66
2016-10-12T07:44:00.914Z,995.65
2016-10-12T07:45:11.221Z,995.66
2016-10-12T07:46:20.895Z,995.66
2016-10-12T07:47:31.196Z,995.68
2016-10-12T07:48:41.490Z,995.69
2016-10-12T07:49:51.463Z,995.72
2016-10-12T07:51:01.131Z,995.71
2016-10-12T07:52:11.419Z,995.76
2016-10-12T07:53:21.409Z,995.75
2016-10-12T07:54:31.686Z,995.77
2016-10-12T07:55:40.737Z,995.76
2016-10-12T07:56:50.714Z,995.79
2016-10-12T07:58:00.986Z,995.78
2016-10-12T07:59:11.277Z,995.8
2016-10-12T08:00:21.570Z,995.76
2016-10-12T08:01:31.843Z,995.78
2016-10-12T08:02:42.143Z,995.82
2016-10-12T08:03:52.123Z,995.88
2016-10-12T08:05:02.120Z,995.84
2016-10-12T08:06:12.425Z,995.87
2016-10-12T08:07:22.101Z,995.87
2016-10-12T08:08:32.392Z,995.89
2016-10-12T08:09:42.703Z,995.91
2016-10-12T08:10:52.983Z,995.93
2016-10-12T08:12:02.936Z,995.97
2016-10-12T08:13:12.916Z,995.99
2016-10-12T08:14:22.918Z,995.99
2016-10-12T08:15:33.211Z,995.95
2016-10-12T08:16:43.497Z,996
2016-10-12T08:17:53.487Z,996.04
2016-10-12T08:19:03.466Z,996.04
2016-10-12T08:20:13.748Z,996.08
2016-10-12T08:21:24.038Z,996.08
2016-10-12T08:22:34.315Z,996.08
2016-10-12T08:23:44.324Z,996.08
2016-10-12T08:24:53.999Z,996.11
2016-10-12T08:26:03.967Z,996.07
2016-10-12T08:27:13.953Z,996.12
2016-10-12T08:28:23.960Z,996.07
2016-10-12T08:29:33.952Z,996.1
2016-10-12T08:30:43.934Z,996.12
2016-10-12T08:31:54.448Z,996.11
2016-10-12T08:33:04.149Z,996.15
2016-10-12T08:34:14.427Z,996.19
2016-10-12T08:35:24.709Z,996.05
2016-10-12T08:36:35.021Z,996.14
2016-10-12T08:37:45.010Z,996.08
2016-10-12T08:38:55.005Z,996.1
2016-10-12T08:40:04.679Z,996.1
2016-10-12T08:41:14.672Z,996.12
2016-10-12T08:42:24.644Z,996.09
2016-10-12T08:43:34.960Z,996.13
2016-10-12T08:44:44.632Z,996.16
2016-10-12T08:45:54.304Z,996.11
2016-10-12T08:47:04.278Z,996.08
2016-10-12T08:48:14.258Z,996.08
2016-10-12T08:49:23.941Z,996.11
2016-10-12T08:50:33.940Z,996.06
2016-10-12T08:51:44.233Z,996.06
2016-10-12T08:52:54.459Z,996.06
2016-10-12T08:54:04.456Z,996.05
2016-10-12T08:55:14.439Z,996.04
2016-10-12T08:56:24.744Z,996.08
2016-10-12T08:57:35.033Z,996.02
2016-10-12T08:58:45.027Z,996.07
2016-10-12T08:59:55.304Z,996.01
2016-10-12T09:01:05.321Z,996.05
2016-10-12T09:02:15.614Z,996.02
2016-10-12T09:03:24.989Z,996.09
2016-10-12T09:04:35.281Z,996.12
2016-10-12T09:05:45.258Z,996.09
2016-10-12T09:06:55.262Z,996.15
2016-10-12T09:08:04.937Z,996.26
2016-10-12T09:09:14.922Z,996.2
2016-10-12T09:10:25.230Z,996.19
2016-10-12T09:11:34.599Z,996.2
2016-10-12T09:12:44.274Z,996.21
2016-10-12T09:13:54.254Z,996.3
2016-10-12T09:15:04.532Z,996.23
2016-10-12T09:16:14.190Z,996.31
2016-10-12T09:17:24.474Z,996.27
2016-10-12T09:18:34.780Z,996.32
2016-10-12T09:19:45.084Z,996.3
2016-10-12T09:20:55.365Z,996.31
2016-10-12T09:22:05.342Z,996.41
2016-10-12T09:23:15.317Z,996.41
2016-10-12T09:24:25.290Z,996.4
2016-10-12T09:25:35.575Z,996.39
2016-10-12T09:26:45.936Z,996.43
2016-10-12T09:27:56.258Z,996.4
2016-10-12T09:29:06.227Z,996.41
2016-10-12T09:30:16.194Z,996.4
2016-10-12T09:31:26.477Z,996.42
2016-10-12T09:32:36.482Z,996.42
2016-10-12T09:33:46.464Z,996.42
2016-10-12T09:34:56.753Z,996.46
2016-10-12T09:36:06.759Z,996.46
2016-10-12T09:37:16.732Z,996.46
2016-10-12T09:38:26.715Z,996.45
2016-10-12T09:39:36.706Z,996.51
2016-10-12T09:40:46.370Z,996.52
2016-10-12T09:41:56.366Z,996.56
2016-10-12T09:43:06.349Z,996.61
2016-10-12T09:44:16.639Z,996.51
2016-10-12T09:45:26.291Z,996.61
2016-10-12T09:46:35.981Z,996.63
2016-10-12T09:47:46.301Z,996.59
2016-10-12T09:48:56.576Z,996.63
2016-10-12T09:50:06.860Z,996.61
2016-10-12T09:51:17.153Z,996.62
2016-10-12T09:52:27.144Z,996.63
2016-10-12T09:53:37.457Z,996.67
2016-10-12T09:54:47.430Z,996.7
2016-10-12T09:55:57.715Z,996.69
2016-10-12T09:57:08.014Z,996.72
2016-10-12T09:58:18.000Z,996.69
2016-10-12T09:59:28.291Z,996.72
2016-10-12T10:00:38.277Z,996.74
2016-10-12T10:01:48.310Z,996.78
2016-10-12T10:02:58.831Z,996.74
2016-10-12T10:04:08.498Z,996.71
2016-10-12T10:05:18.187Z,996.73
2016-10-12T10:06:28.175Z,996.69
2016-10-12T10:07:38.169Z,996.75
2016-10-12T10:08:48.464Z,996.74
2016-10-12T10:09:58.822Z,996.78
2016-10-12T10:11:08.825Z,996.76
2016-10-12T10:12:19.124Z,996.77
2016-10-12T10:13:28.800Z,996.84
2016-10-12T10:14:38.790Z,996.87
2016-10-12T10:15:48.466Z,996.86
2016-10-12T10:16:58.809Z,996.82
2016-10-12T10:18:08.846Z,996.81
2016-10-12T10:19:19.153Z,996.81
2016-10-12T10:20:29.152Z,996.79
2016-10-12T10:21:39.453Z,996.77
2016-10-12T10:22:49.735Z,996.82
2016-10-12T10:24:00.022Z,996.84
2016-10-12T10:25:10.309Z,996.77
2016-10-12T10:26:20.309Z,996.88
2016-10-12T10:27:30.612Z,996.88
2016-10-12T10:28:40.603Z,996.77
2016-10-12T10:29:50.603Z,996.88
2016-10-12T10:31:00.881Z,996.86
2016-10-12T10:32:11.166Z,996.87
2016-10-12T10:33:20.860Z,996.83
2016-10-12T10:34:31.152Z,996.87
2016-10-12T10:35:41.433Z,996.81
2016-10-12T10:36:51.444Z,996.87
2016-10-12T10:38:01.457Z,996.85
2016-10-12T10:39:11.744Z,996.8
2016-10-12T10:40:21.726Z,996.87
2016-10-12T10:41:32.016Z,996.86
2016-10-12T10:42:42.314Z,996.86
2016-10-12T10:43:52.296Z,996.86
2016-10-12T10:45:02.601Z,996.88
2016-10-12T10:46:11.977Z,996.91
2016-10-12T10:47:22.279Z,996.86
2016-10-12T10:48:32.313Z,996.91
2016-10-12T10:49:42.607Z,996.93
2016-10-12T10:50:52.894Z,996.94
2016-10-12T10:52:01.951Z,996.93
2016-10-12T10:53:12.242Z,996.91
2016-10-12T10:54:22.520Z,996.88
2016-10-12T10:55:32.816Z,996.86
2016-10-12T10:56:43.128Z,996.85
2016-10-12T10:57:53.106Z,996.84
2016-10-12T10:59:03.391Z,996.92
2016-10-12T11:00:13.073Z,996.85
2016-10-12T11:01:23.061Z,996.87
2016-10-12T11:02:33.030Z,996.86
2016-10-12T11:03:43.038Z,996.87
2016-10-12T11:04:53.009Z,996.85
2016-10-12T11:06:03.322Z,996.86
2016-10-12T11:07:13.323Z,996.87
2016-10-12T11:08:23.615Z,996.9
2016-10-12T11:09:33.903Z,996.85
2016-10-12T11:10:44.203Z,996.86
2016-10-12T11:11:53.895Z,996.89
2016-10-12T11:13:03.877Z,996.87
2016-10-12T11:14:13.868Z,996.85
2016-10-12T11:15:24.177Z,996.84
2016-10-12T11:16:33.856Z,996.84
2016-10-12T11:17:43.834Z,996.84
2016-10-12T11:18:53.824Z,996.81
2016-10-12T11:20:03.812Z,996.89
2016-10-12T11:21:14.119Z,996.85
2016-10-12T11:22:24.404Z,996.89
2016-10-12T11:23:34.738Z,996.95
2016-10-12T11:24:45.018Z,996.85
2016-10-12T11:25:54.984Z,996.88
2016-10-12T11:27:05.288Z,996.82
2016-10-12T11:28:15.596Z,996.91
2016-10-12T11:29:25.266Z,996.89
2016-10-12T11:30:35.266Z,996.84
2016-10-12T11:31:45.578Z,996.83
2016-10-12T11:32:55.585Z,996.87
2016-10-12T11:34:05.878Z,996.89
2016-10-12T11:35:15.875Z,996.88
2016-10-12T11:36:25.845Z,996.9
2016-10-12T11:37:35.823Z,996.9
2016-10-12T11:38:46.113Z,996.84
2016-10-12T11:39:56.026Z,996.94
2016-10-12T11:41:06.337Z,996.89
2016-10-12T11:42:16.619Z,996.91
2016-10-12T11:43:26.615Z,996.93
2016-10-12T11:44:36.913Z,996.96
2016-10-12T11:45:47.218Z,996.96
2016-10-12T11:46:57.505Z,996.95
2016-10-12T11:48:07.172Z,996.97
2016-10-12T11:49:17.154Z,996.99
2016-10-12T11:50:27.460Z,996.99
2016-10-12T11:51:37.442Z,996.96
2016-10-12T11:52:47.138Z,997
2016-10-12T11:53:57.446Z,996.96
2016-10-12T11:55:07.772Z,996.96
2016-10-12T11:56:17.765Z,996.92
2016-10-12T11:57:27.735Z,996.88
2016-10-12T11:58:38.037Z,996.91
2016-10-12T11:59:48.038Z,996.87
2016-10-12T12:00:58.020Z,996.88
2016-10-12T12:02:08.011Z,996.88
2016-10-12T12:03:17.990Z,996.96
2016-10-12T12:04:28.305Z,996.93
2016-10-12T12:05:38.267Z,996.91
2016-10-12T12:06:48.572Z,996.97
2016-10-12T12:07:58.251Z,996.99
2016-10-12T12:09:08.233Z,996.97
2016-10-12T12:10:17.909Z,996.94
2016-10-12T12:11:27.879Z,996.92
2016-10-12T12:12:38.172Z,996.91
2016-10-12T12:13:48.468Z,996.94
2016-10-12T12:14:58.734Z,997
2016-10-12T12:16:09.026Z,996.97
2016-10-12T12:17:19.000Z,996.94
2016-10-12T12:18:29.292Z,996.9
2016-10-12T12:19:39.593Z,996.95
2016-10-12T12:20:49.873Z,996.95
2016-10-12T12:21:59.874Z,996.96
2016-10-12T12:23:09.860Z,996.91
2016-10-12T12:24:19.535Z,996.91
2016-10-12T12:25:29.848Z,996.95
2016-10-12T12:26:39.840Z,996.93
2016-10-12T12:27:50.151Z,997.04
2016-10-12T12:29:00.441Z,996.96
2016-10-12T12:30:10.738Z,996.98
2016-10-12T12:31:20.713Z,996.97
2016-10-12T12:32:31.005Z,997.03
2016-10-12T12:33:40.687Z,997
2016-10-12T12:34:50.978Z,996.98
2016-10-12T12:36:00.956Z,997.01
2016-10-12T12:37:11.273Z,997.02
2016-10-12T12:38:20.943Z,997
2016-10-12T12:39:30.925Z,996.98
2016-10-12T12:40:41.226Z,996.96
2016-10-12T12:41:51.523Z,997.02
2016-10-12T12:43:01.177Z,996.98
2016-10-12T12:44:11.481Z,996.99
2016-10-12T12:45:21.469Z,997.02
2016-10-12T12:46:31.155Z,996.98
2016-10-12T12:47:40.856Z,996.97
2016-10-12T12:48:50.848Z,996.97
2016-10-12T12:50:00.835Z,996.96
2016-10-12T12:51:10.813Z,997.02
2016-10-12T12:52:20.798Z,996.92
2016-10-12T12:53:30.769Z,996.95
2016-10-12T12:54:40.436Z,996.92
2016-10-12T12:55:50.423Z,996.91
2016-10-12T12:57:00.401Z,996.87
2016-10-12T12:58:10.709Z,996.89
2016-10-12T12:59:20.937Z,996.93
2016-10-12T13:00:30.595Z,996.85
2016-10-12T13:01:40.894Z,996.92
2016-10-12T13:02:51.196Z,996.91
2016-10-12T13:04:01.510Z,996.93
2016-10-12T13:05:11.196Z,996.92
2016-10-12T13:06:21.189Z,996.93
2016-10-12T13:07:31.452Z,996.96
2016-10-12T13:08:41.752Z,996.98
2016-10-12T13:09:51.751Z,996.91
2016-10-12T13:11:02.062Z,996.89
2016-10-12T13:12:12.371Z,996.94
2016-10-12T13:13:22.338Z,996.9
2016-10-12T13:14:32.638Z,996.91
2016-10-12T13:15:42.961Z,996.99
2016-10-12T13:16:53.264Z,997.01
2016-10-12T13:18:02.950Z,996.97
2016-10-12T13:19:12.632Z,997.01
2016-10-12T13:20:22.619Z,997.01
2016-10-12T13:21:32.613Z,997.01
2016-10-12T13:22:42.596Z,996.97
2016-10-12T13:23:52.601Z,997.02
2016-10-12T13:25:02.601Z,996.98
2016-10-12T13:26:12.931Z,997.03
2016-10-12T13:27:23.256Z,997.05
2016-10-12T13:28:33.554Z,996.96
2016-10-12T13:29:43.879Z,996.99
2016-10-12T13:30:54.447Z,996.92
2016-10-12T13:32:04.752Z,996.97
2016-10-12T13:33:14.746Z,996.94
2016-10-12T13:34:24.739Z,996.94
2016-10-12T13:35:35.062Z,996.92
2016-10-12T13:36:45.388Z,996.93
2016-10-12T13:37:55.064Z,996.95
2016-10-12T13:39:05.048Z,996.99
2016-10-12T13:40:14.752Z,997.02
2016-10-12T13:41:24.745Z,996.99
2016-10-12T13:42:34.754Z,996.98
2016-10-12T13:43:44.747Z,996.95
2016-10-12T13:44:54.436Z,996.97
2016-10-12T13:46:04.733Z,997.05
2016-10-12T13:47:15.057Z,996.97
2016-10-12T13:48:25.349Z,996.99
2016-10-12T13:49:35.347Z,996.93
2016-10-12T13:50:45.328Z,996.95
2016-10-12T13:51:55.666Z,996.87
2016-10-12T13:53:05.672Z,996.93
2016-10-12T13:54:15.656Z,996.94
2016-10-12T13:55:25.967Z,996.9
2016-10-12T13:56:35.978Z,996.95
2016-10-12T13:57:46.287Z,997.06
2016-10-12T13:58:56.653Z,996.93
2016-10-12T14:00:06.968Z,996.94
2016-10-12T14:01:17.279Z,997
2016-10-12T14:02:27.298Z,996.93
2016-10-12T14:03:37.273Z,997.02
2016-10-12T14:04:47.592Z,996.98
2016-10-12T14:05:57.908Z,997.02
2016-10-12T14:07:08.226Z,997.06
2016-10-12T14:08:18.588Z,997
2016-10-12T14:09:28.936Z,997.01
2016-10-12T14:10:38.939Z,997.1
2016-10-12T14:11:49.309Z,997.07
2016-10-12T14:12:59.621Z,997.15
2016-10-12T14:14:09.912Z,997.11
2016-10-12T14:15:20.218Z,997.07
2016-10-12T14:16:30.237Z,997.14
2016-10-12T14:17:40.237Z,997.1
2016-10-12T14:18:50.241Z,997.2
2016-10-12T14:20:00.241Z,997.12
2016-10-12T14:21:10.557Z,997.08
2016-10-12T14:22:20.869Z,997.17
2016-10-12T14:23:31.179Z,997.17
2016-10-12T14:24:41.457Z,997.16
2016-10-12T14:25:51.428Z,997.14
2016-10-12T14:27:01.720Z,997.14
2016-10-12T14:28:12.022Z,997.14
2016-10-12T14:29:22.017Z,997.17
2016-10-12T14:30:32.331Z,997.11
2016-10-12T14:31:42.324Z,997.14
2016-10-12T14:32:52.303Z,997.12
2016-10-12T14:34:02.312Z,997.14
2016-10-12T14:35:12.295Z,997.1
2016-10-12T14:36:22.585Z,997.14
2016-10-12T14:37:32.250Z,997.08
2016-10-12T14:38:42.548Z,997.13
2016-10-12T14:39:52.854Z,997.05
2016-10-12T14:41:03.146Z,997.11
2016-10-12T14:42:13.146Z,997.26
2016-10-12T14:43:23.454Z,997.11
2016-10-12T14:44:33.789Z,997.17
2016-10-12T14:45:43.783Z,997.2
2016-10-12T14:46:53.761Z,997.19
2016-10-12T14:48:04.065Z,997.25
2016-10-12T14:49:13.757Z,997.18
2016-10-12T14:50:24.030Z,997.22
2016-10-12T14:51:33.716Z,997.22
2016-10-12T14:52:43.703Z,997.17
2016-10-12T14:53:53.389Z,997.25
2016-10-12T14:55:03.365Z,997.24
2016-10-12T14:56:13.660Z,997.27
2016-10-12T14:57:23.639Z,997.29
2016-10-12T14:58:33.936Z,997.26
2016-10-12T14:59:43.299Z,997.32
2016-10-12T15:00:53.594Z,997.36
2016-10-12T15:02:03.590Z,997.34
2016-10-12T15:03:13.594Z,997.35
2016-10-12T15:04:23.268Z,997.39
2016-10-12T15:05:33.583Z,997.36
2016-10-12T15:06:43.577Z,997.32
2016-10-12T15:07:53.565Z,997.34